KPGD/PGD METAR and TAF weather

Enter ICAO airport designator
Station Type Date Time Source
KPGD METAR 2022/01/19 18:53 UTC NOAA

KPGD 191853Z 16009G17KT 10SM FEW047 23/12 A3017 RMK AO2 SLP214 T02330117


Station Type Date Time Source
KPGD Decoded METAR 2022/01/19 18:53 UTC NOAA

PUNTA GORDA CHARLOTTE COUNTY, FL, United States (KPGD) 26-55N 82-00W 7M
Jan 19, 2022 - 01:53 PM EST / 2022.01.19 1853 UTC
Wind: from the SSE (160 degrees) at 10 MPH (9 KT) gusting to 20 MPH (17 KT):0
Visibility: 10 mile(s):0
Sky conditions: mostly clear
Temperature: 73.9 F (23.3 C)
Dew Point: 53.1 F (11.7 C)
Relative Humidity: 48%
Pressure (altimeter): 30.17 in. Hg (1021 hPa)
ob: KPGD 191853Z 16009G17KT 10SM FEW047 23/12 A3017 RMK AO2 SLP214 T02330117
cycle: 19

Station Type Date Time Source
KPGD TAF 2022/01/19 18:40 UTC NOAA

TAF KPGD 191738Z 1918/2018 14008KT P6SM FEW040
FM192000 21008KT P6SM FEW050
FM200100 VRB03KT P6SM FEW050 FEW250
FM201500 20006KT P6SM FEW040 FEW250

Example: see airport list